Time;durP1;ratioP1;P1;durP2;ratioP2;P2;SDS_P1;SDS_P2;PMS_P1;PMS_P2;Temp;Humidity;BMP_temperature;BMP_pressure;BME280_temperature;BME280_humidity;BME280_pressure;Samples;Min_cycle;Max_cycle;Signal;HPM_P1;HPM_P2
2022/11/27 00:01:57;;;;;;;8.90;8.03;;;4.10;54.10;;;;;;20941;6718;117563;-75
2022/11/27 00:04:33;;;;;;;10.30;9.60;;;4.00;54.60;;;;;;20734;6718;305145;-75
2022/11/27 00:07:09;;;;;;;9.50;8.88;;;4.60;53.90;;;;;;20657;6759;335653;-76
2022/11/27 00:09:44;;;;;;;143.30;63.97;;;4.60;53.80;;;;;;20906;6746;121263;-75
2022/11/27 00:12:20;;;;;;;86.27;45.43;;;4.60;53.40;;;;;;20660;6761;310227;-77
2022/11/27 00:14:56;;;;;;;8.80;8.10;;;4.60;52.40;;;;;;20851;6746;117143;-75
2022/11/27 00:17:32;;;;;;;10.60;9.13;;;4.60;52.40;;;;;;20664;6756;307334;-75
2022/11/27 00:20:08;;;;;;;30.97;8.37;;;4.60;52.30;;;;;;20914;6746;117078;-75
2022/11/27 00:22:43;;;;;;;43.00;9.13;;;4.60;52.50;;;;;;20857;6752;117249;-74
2022/11/27 00:25:19;;;;;;;155.60;11.43;;;4.30;53.00;;;;;;20835;6751;118005;-75
2022/11/27 00:27:57;;;;;;;176.67;12.30;;;4.10;53.50;;;;;;20815;6762;117709;-74
2022/11/27 00:30:34;;;;;;;127.90;13.45;;;4.20;53.90;;;;;;20685;6746;306797;-74
2022/11/27 00:33:10;;;;;;;337.50;19.75;;;4.10;54.10;;;;;;20591;6766;279680;-75
2022/11/27 00:35:52;;;;;;;397.13;19.10;;;4.60;53.80;;;;;;20660;6789;119628;-75
2022/11/27 00:38:25;;;;;;;436.83;19.97;;;4.50;53.50;;;;;;20906;6739;117909;-75
2022/11/27 00:41:14;;;;;;;175.93;17.67;;;4.40;54.10;;;;;;20693;6746;309753;-75
2022/11/27 00:43:49;;;;;;;478.87;22.90;;;4.50;55.00;;;;;;20895;6732;118240;-74
2022/11/27 00:46:25;;;;;;;202.07;18.60;;;4.50;54.70;;;;;;20489;6753;340149;-74
2022/11/27 00:49:00;;;;;;;287.73;19.40;;;4.70;55.00;;;;;;20902;6750;118846;-75
2022/11/27 00:51:36;;;;;;;456.43;26.73;;;4.70;54.70;;;;;;20646;6752;293437;-76
2022/11/27 00:54:12;;;;;;;255.70;24.17;;;5.10;54.30;;;;;;20676;6748;332435;-76
2022/11/27 00:56:48;;;;;;;741.73;33.77;;;5.10;54.30;;;;;;20679;6758;118267;-75
2022/11/27 00:59:24;;;;;;;475.20;28.83;;;5.10;54.20;;;;;;20728;6732;278422;-77
2022/11/27 01:02:00;;;;;;;430.30;26.57;;;5.40;54.00;;;;;;20624;6766;288729;-77
2022/11/27 01:04:35;;;;;;;354.77;21.83;;;5.30;54.50;;;;;;20858;6762;117396;-75
2022/11/27 01:07:13;;;;;;;470.17;22.50;;;5.20;53.80;;;;;;20818;6768;118735;-75
2022/11/27 01:09:48;;;;;;;550.63;28.57;;;4.90;54.50;;;;;;20670;6745;276525;-75
2022/11/27 01:12:24;;;;;;;378.73;23.40;;;5.10;55.00;;;;;;20683;6746;281120;-75
2022/11/27 01:15:00;;;;;;;664.87;29.70;;;5.60;54.10;;;;;;20678;6738;279523;-77
2022/11/27 01:17:39;;;;;;;548.57;25.93;;;5.60;53.40;;;;;;20730;6727;298839;-76
2022/11/27 01:20:11;;;;;;;529.55;26.12;;;5.80;53.30;;;;;;20734;6727;335175;-75
2022/11/27 01:22:53;;;;;;;653.27;25.27;;;5.90;52.60;;;;;;20954;6727;117293;-75
2022/11/27 01:25:22;;;;;;;623.17;23.03;;;5.60;52.70;;;;;;20855;6742;118534;-75
2022/11/27 01:27:59;;;;;;;377.60;18.77;;;5.20;53.50;;;;;;20857;6747;117506;-75
2022/11/27 01:30:41;;;;;;;521.87;25.30;;;4.90;54.10;;;;;;20637;6764;277492;-75
2022/11/27 01:35:57;;;;;;;259.37;15.63;;;5.20;53.90;;;;;;20726;6730;122198;-75
2022/11/27 01:38:33;;;;;;;286.30;17.90;;;5.10;53.90;;;;;;20700;6747;279447;-75
2022/11/27 01:41:18;;;;;;;328.87;17.90;;;5.10;54.40;;;;;;20822;6776;117912;-75
2022/11/27 01:43:54;;;;;;;447.17;18.00;;;5.00;54.30;;;;;;20777;6762;119324;-75
2022/11/27 01:46:34;;;;;;;173.10;14.07;;;4.80;54.80;;;;;;20535;6761;283418;-76
2022/11/27 01:49:09;;;;;;;76.87;8.97;;;4.80;54.80;;;;;;20821;6758;117500;-75
2022/11/27 01:51:58;;;;;;;;;;;;;;;;;;;;;
2022/11/27 01:54:24;;;;;;;31.23;6.73;;;4.50;54.60;;;;;;20760;6755;118338;-76
2022/11/27 01:57:05;;;;;;;7.00;6.00;;;4.30;55.10;;;;;;20715;6751;119392;-75
2022/11/27 01:59:35;;;;;;;6.57;5.93;;;4.10;55.40;;;;;;20882;6746;117919;-77
2022/11/27 02:02:10;;;;;;;6.63;6.13;;;3.90;55.70;;;;;;20948;6731;117892;-76
2022/11/27 02:04:46;;;;;;;6.37;5.97;;;3.80;55.90;;;;;;20847;6750;117375;-75
2022/11/27 02:07:21;;;;;;;5.63;5.23;;;3.70;56.20;;;;;;20877;6744;116819;-78
2022/11/27 02:09:57;;;;;;;6.17;5.67;;;3.60;56.20;;;;;;20859;6744;117293;-75
2022/11/27 02:12:42;;;;;;;7.50;7.00;;;3.60;56.50;;;;;;20681;6748;278195;-75
2022/11/27 02:15:24;;;;;;;7.90;7.30;;;3.80;55.90;;;;;;20632;6752;313132;-76
2022/11/27 02:39:41;;;;;;;412.40;18.17;;;5.40;51.50;;;;;;21082;6514;91730;-75
2022/11/27 02:42:07;;;;;;;361.63;20.60;;;5.10;51.80;;;;;;20620;6804;307912;-75
2022/11/27 02:44:32;;;;;;;289.33;17.70;;;5.00;52.90;;;;;;20570;6804;299720;-76
2022/11/27 02:46:59;;;;;;;244.13;14.57;;;5.00;53.10;;;;;;20711;6849;121286;-75
2022/11/27 02:49:24;;;;;;;209.77;12.00;;;5.00;53.10;;;;;;20656;6873;117985;-75
2022/11/27 02:51:50;;;;;;;167.25;11.60;;;4.70;53.70;;;;;;20498;6842;308142;-75
2022/11/27 02:54:15;;;;;;;85.57;9.10;;;4.70;54.00;;;;;;20661;6868;117648;-75
2022/11/27 02:56:41;;;;;;;29.40;7.20;;;4.60;53.70;;;;;;20758;6842;117341;-76
2022/11/27 02:59:07;;;;;;;14.67;6.17;;;4.40;54.00;;;;;;20754;6843;118592;-75
2022/11/27 03:01:32;;;;;;;6.77;6.17;;;4.10;54.30;;;;;;20728;6843;122310;-75
2022/11/27 03:03:58;;;;;;;6.90;6.20;;;3.90;54.60;;;;;;20723;6843;122141;-75
2022/11/27 03:06:26;;;;;;;8.15;7.62;;;3.70;54.90;;;;;;20534;6843;294971;-75
2022/11/27 03:09:01;;;;;;;8.77;8.17;;;3.90;54.50;;;;;;20440;6868;281310;-77
2022/11/27 03:11:29;;;;;;;8.30;7.70;;;4.50;52.30;;;;;;20522;6842;277856;-75
2022/11/27 03:13:53;;;;;;;7.95;7.45;;;4.50;52.40;;;;;;20516;6842;303206;-73
2022/11/27 03:16:19;;;;;;;6.90;6.40;;;4.70;51.80;;;;;;20743;6842;118309;-74
2022/11/27 03:18:51;;;;;;;8.13;7.40;;;4.50;51.80;;;;;;20535;6843;336680;-74
2022/11/27 03:21:20;;;;;;;14.53;7.83;;;4.50;51.90;;;;;;20519;6842;308056;-74
2022/11/27 03:23:47;;;;;;;54.33;8.20;;;4.70;51.40;;;;;;20699;6842;119694;-74
2022/11/27 03:26:12;;;;;;;131.82;11.98;;;4.50;51.60;;;;;;20553;6842;336760;-74
2022/11/27 03:28:38;;;;;;;196.30;14.65;;;4.50;52.20;;;;;;20464;6868;310407;-74
2022/11/27 03:31:04;;;;;;;292.73;14.18;;;4.70;51.90;;;;;;20756;6841;118183;-74
2022/11/27 03:33:29;;;;;;;213.52;16.20;;;4.60;52.00;;;;;;20536;6841;337440;-74
2022/11/27 03:35:56;;;;;;;265.92;17.35;;;4.70;52.60;;;;;;20521;6842;307356;-76
2022/11/27 03:38:21;;;;;;;447.07;17.90;;;4.70;52.60;;;;;;20755;6841;118248;-74
2022/11/27 03:40:58;;;;;;;421.30;20.13;;;4.60;52.50;;;;;;20537;6841;278079;-74
2022/11/27 03:43:25;;;;;;;420.50;17.67;;;4.40;52.80;;;;;;20459;6841;118722;-74
2022/11/27 03:45:57;;;;;;;341.67;18.27;;;4.40;52.80;;;;;;20495;6841;339881;-74
2022/11/27 03:48:22;;;;;;;482.03;19.93;;;4.40;53.30;;;;;;20630;6866;118676;-74
2022/11/27 03:51:09;;;;;;;371.20;17.15;;;4.10;53.80;;;;;;20675;6849;119510;-74
2022/11/27 03:53:51;;;;;;;328.83;14.13;;;4.10;53.80;;;;;;20679;6870;118875;-75
2022/11/27 03:56:49;;;;;;;298.93;17.07;;;3.90;54.30;;;;;;20436;6846;307566;-74
2022/11/27 03:59:25;;;;;;;547.42;23.15;;;4.00;55.00;;;;;;20527;6846;339997;-74
2022/11/27 04:01:51;;;;;;;105.67;9.93;;;4.40;54.60;;;;;;20716;6846;118835;-75
2022/11/27 04:04:17;;;;;;;203.10;13.10;;;4.40;54.30;;;;;;20741;6846;117526;-75
2022/11/27 04:06:44;;;;;;;241.60;12.87;;;4.00;55.10;;;;;;20713;6847;119164;-76
2022/11/27 04:09:09;;;;;;;138.10;10.13;;;4.00;55.10;;;;;;20641;6877;121350;-76
2022/11/27 04:11:35;;;;;;;110.12;11.73;;;3.80;55.40;;;;;;20455;6868;278593;-78
2022/11/27 04:14:01;;;;;;;88.80;11.13;;;3.90;55.70;;;;;;20333;6850;302067;-76
2022/11/27 04:16:26;;;;;;;116.25;11.55;;;4.40;55.60;;;;;;20520;6850;308487;-76
2022/11/27 04:18:53;;;;;;;161.15;12.05;;;4.70;54.60;;;;;;20519;6850;279062;-77
2022/11/27 04:21:18;;;;;;;290.67;13.67;;;5.00;53.60;;;;;;20725;6853;117365;-75
2022/11/27 04:23:44;;;;;;;81.53;8.23;;;4.80;53.30;;;;;;20661;6868;146165;-75
2022/11/27 04:26:10;;;;;;;243.63;14.77;;;4.50;53.80;;;;;;20518;6850;279025;-76
2022/11/27 04:28:35;;;;;;;271.33;14.73;;;4.60;54.10;;;;;;20480;6865;290541;-76
2022/11/27 04:31:01;;;;;;;188.90;12.33;;;4.70;54.00;;;;;;20642;6876;118926;-75
2022/11/27 04:33:27;;;;;;;288.73;14.90;;;4.70;53.30;;;;;;20499;6858;307846;-76
2022/11/27 04:35:53;;;;;;;169.40;10.17;;;4.60;53.80;;;;;;20696;6856;117707;-75
2022/11/27 04:38:19;;;;;;;190.47;12.97;;;4.60;53.40;;;;;;20504;6856;308522;-75
2022/11/27 04:40:44;;;;;;;294.42;18.60;;;4.60;53.60;;;;;;20709;6856;117985;-76
2022/11/27 04:43:10;;;;;;;342.63;16.67;;;4.50;53.60;;;;;;20713;6856;118698;-74
2022/11/27 04:45:36;;;;;;;375.57;15.73;;;4.30;54.10;;;;;;20701;6840;117578;-78
2022/11/27 04:48:01;;;;;;;270.52;16.25;;;4.10;54.60;;;;;;20544;6832;335459;-75
2022/11/27 04:50:27;;;;;;;370.73;17.83;;;4.30;54.50;;;;;;20791;6832;117719;-74
2022/11/27 04:52:54;;;;;;;502.03;21.60;;;4.40;54.20;;;;;;20556;6832;307509;-75
2022/11/27 04:55:19;;;;;;;579.10;23.33;;;4.30;54.20;;;;;;20531;6846;336652;-74
2022/11/27 04:57:45;;;;;;;624.37;23.60;;;4.60;53.60;;;;;;20516;6846;278889;-74
2022/11/27 05:00:11;;;;;;;595.07;23.43;;;4.80;53.10;;;;;;20748;6835;118808;-75
2022/11/27 05:02:36;;;;;;;434.40;23.38;;;4.60;53.00;;;;;;20545;6835;328048;-75
2022/11/27 05:05:02;;;;;;;433.12;19.02;;;4.60;53.40;;;;;;20528;6849;279391;-74
2022/11/27 05:07:28;;;;;;;287.85;16.25;;;4.70;53.00;;;;;;20520;6849;307965;-74
2022/11/27 05:09:53;;;;;;;380.10;15.77;;;4.90;52.70;;;;;;20717;6849;129240;-74
2022/11/27 05:12:19;;;;;;;173.67;10.43;;;4.70;52.80;;;;;;20745;6849;124479;-74
2022/11/27 05:14:44;;;;;;;185.55;12.82;;;4.30;53.30;;;;;;20536;6841;339745;-75
2022/11/27 05:17:10;;;;;;;460.77;18.10;;;4.30;53.90;;;;;;20762;6841;120387;-75
2022/11/27 05:19:36;;;;;;;439.17;16.93;;;4.20;53.80;;;;;;20665;6861;118061;-75
2022/11/27 05:22:01;;;;;;;271.60;11.00;;;4.00;54.20;;;;;;20677;6862;119105;-74
2022/11/27 05:24:27;;;;;;;123.93;10.48;;;3.80;54.60;;;;;;20533;6843;322959;-79
2022/11/27 05:26:52;;;;;;;266.70;12.27;;;4.00;54.90;;;;;;20677;6862;116615;-78
2022/11/27 05:29:19;;;;;;;144.45;9.73;;;3.80;55.20;;;;;;20676;6869;118110;-81
2022/11/27 05:31:44;;;;;;;215.20;12.43;;;3.80;54.80;;;;;;20656;6862;118979;-76
2022/11/27 05:34:10;;;;;;;370.77;18.47;;;3.80;55.50;;;;;;20481;6862;279040;-75
2022/11/27 05:36:36;;;;;;;317.05;16.27;;;3.80;55.40;;;;;;20533;6843;308223;-75
2022/11/27 05:39:02;;;;;;;498.80;19.70;;;4.20;54.50;;;;;;20745;6844;118165;-75
2022/11/27 05:41:27;;;;;;;175.40;12.90;;;4.20;54.20;;;;;;20524;6844;307490;-74
2022/11/27 05:43:53;;;;;;;371.20;13.73;;;4.20;53.70;;;;;;20732;6844;118381;-75
2022/11/27 05:46:19;;;;;;;266.83;11.17;;;4.20;53.70;;;;;;20755;6844;117548;-74
2022/11/27 05:48:44;;;;;;;527.00;21.17;;;3.90;54.00;;;;;;20536;6844;311089;-74
2022/11/27 05:51:11;;;;;;;385.57;13.60;;;3.90;54.00;;;;;;20740;6844;117608;-74
2022/11/27 05:53:36;;;;;;;501.33;20.30;;;3.90;53.90;;;;;;20743;6844;121895;-79
2022/11/27 05:56:06;;;;;;;981.47;37.80;;;3.70;54.20;;;;;;20371;6844;307999;-74
2022/11/27 05:58:32;;;;;;;545.27;23.37;;;3.80;54.50;;;;;;20540;6844;277980;-75
2022/11/27 06:00:57;;;;;;;318.53;15.20;;;4.10;54.00;;;;;;20742;6844;119044;-74
2022/11/27 06:03:23;;;;;;;346.40;14.70;;;4.00;53.70;;;;;;20736;6844;120113;-74
2022/11/27 06:05:48;;;;;;;251.35;14.18;;;3.80;54.20;;;;;;20456;6862;310948;-74
2022/11/27 06:08:14;;;;;;;219.15;11.40;;;3.90;54.60;;;;;;20742;6844;118330;-74
2022/11/27 06:10:39;;;;;;;131.95;8.77;;;3.80;54.20;;;;;;20739;6844;117831;-74
2022/11/27 06:13:05;;;;;;;190.63;11.97;;;3.70;54.70;;;;;;20750;6842;119660;-74
2022/11/27 06:15:31;;;;;;;164.27;9.90;;;3.50;54.90;;;;;;20749;6843;120959;-74
2022/11/27 06:17:56;;;;;;;301.30;16.50;;;3.30;55.30;;;;;;20525;6843;306654;-75
2022/11/27 06:20:22;;;;;;;360.43;19.27;;;3.50;55.10;;;;;;20543;6843;290562;-74
2022/11/27 06:22:47;;;;;;;286.70;16.02;;;3.90;54.40;;;;;;20540;6843;316704;-77
2022/11/27 06:25:13;;;;;;;274.13;13.70;;;4.20;54.00;;;;;;20741;6843;117187;-77
2022/11/27 06:27:39;;;;;;;184.17;11.43;;;4.10;53.70;;;;;;20724;6843;117665;-75
2022/11/27 06:30:06;;;;;;;216.27;14.43;;;3.90;54.10;;;;;;20535;6843;308006;-77
2022/11/27 06:32:31;;;;;;;315.53;19.00;;;3.90;54.40;;;;;;20534;6843;307319;-76
2022/11/27 06:34:57;;;;;;;151.65;11.85;;;4.20;54.00;;;;;;20549;6843;311492;-76
2022/11/27 06:37:22;;;;;;;542.15;24.63;;;4.50;53.60;;;;;;20551;6843;309519;-71
2022/11/27 06:39:48;;;;;;;384.93;18.10;;;4.60;52.80;;;;;;20523;6843;308390;-70
2022/11/27 06:42:14;;;;;;;590.03;24.25;;;4.80;52.30;;;;;;20541;6843;281249;-73
2022/11/27 06:44:39;;;;;;;337.92;13.38;;;4.90;52.00;;;;;;20761;6843;117421;-73
2022/11/27 06:47:06;;;;;;;309.70;12.23;;;4.60;52.00;;;;;;20757;6843;117815;-78
2022/11/27 06:49:33;;;;;;;223.47;10.47;;;4.20;52.60;;;;;;20752;6843;117812;-76
2022/11/27 06:52:00;;;;;;;152.70;8.10;;;3.90;53.30;;;;;;20730;6844;118301;-80
2022/11/27 06:54:25;;;;;;;231.27;13.43;;;3.60;53.90;;;;;;20542;6844;307257;-76
2022/11/27 06:56:51;;;;;;;293.23;14.20;;;3.70;54.20;;;;;;20753;6844;120024;-71
2022/11/27 06:59:16;;;;;;;339.90;13.98;;;3.70;54.00;;;;;;20756;6844;117278;-72
2022/11/27 07:01:42;;;;;;;328.42;13.73;;;3.50;54.40;;;;;;20729;6844;119445;-73
2022/11/27 07:04:11;;;;;;;229.30;13.00;;;3.30;54.80;;;;;;20755;6844;117907;-75
2022/11/27 07:06:36;;;;;;;320.10;12.83;;;3.20;55.20;;;;;;20775;6844;116990;-75
2022/11/27 07:09:02;;;;;;;540.23;24.27;;;3.30;56.00;;;;;;20572;6844;308986;-75
2022/11/27 07:11:28;;;;;;;205.13;13.37;;;3.30;55.90;;;;;;20571;6844;307040;-71
2022/11/27 07:13:54;;;;;;;397.45;17.10;;;4.00;54.10;;;;;;20549;6844;307662;-73
2022/11/27 07:16:21;;;;;;;473.15;22.23;;;4.30;53.80;;;;;;20561;6844;340055;-71
2022/11/27 07:18:47;;;;;;;586.97;22.13;;;4.30;53.80;;;;;;20570;6844;329639;-77
2022/11/27 07:21:13;;;;;;;446.70;18.92;;;4.50;53.30;;;;;;20514;6862;309018;-72
2022/11/27 07:23:39;;;;;;;319.05;16.67;;;4.60;52.70;;;;;;20561;6842;301069;-73
2022/11/27 07:26:08;;;;;;;97.23;9.07;;;4.70;52.50;;;;;;20736;6862;118367;-74
2022/11/27 07:28:33;;;;;;;379.40;14.53;;;4.50;52.80;;;;;;20767;6843;116403;-74
2022/11/27 07:30:59;;;;;;;470.90;19.13;;;4.30;53.70;;;;;;20758;6843;118621;-75
2022/11/27 07:33:24;;;;;;;194.30;13.07;;;4.00;54.30;;;;;;20477;6862;310578;-75
2022/11/27 07:35:50;;;;;;;467.10;20.60;;;4.10;54.50;;;;;;20740;6843;118006;-73
2022/11/27 07:38:17;;;;;;;200.60;12.75;;;4.10;54.30;;;;;;20730;6843;117727;-75
2022/11/27 07:40:43;;;;;;;205.35;12.25;;;4.20;55.30;;;;;;20546;6843;280820;-73
2022/11/27 07:43:10;;;;;;;210.17;12.17;;;4.20;54.70;;;;;;20544;6843;310330;-74
2022/11/27 07:45:36;;;;;;;308.30;15.00;;;4.50;53.90;;;;;;20526;6843;277851;-75
2022/11/27 07:48:01;;;;;;;373.03;13.80;;;4.80;53.40;;;;;;20754;6843;117555;-73
2022/11/27 07:50:27;;;;;;;250.37;14.00;;;4.70;53.10;;;;;;20551;6843;277706;-73
2022/11/27 07:52:52;;;;;;;143.10;10.67;;;4.70;53.30;;;;;;20553;6843;308526;-77
2022/11/27 07:55:18;;;;;;;311.70;14.50;;;4.90;52.70;;;;;;20752;6843;117504;-74
2022/11/27 07:57:43;;;;;;;76.05;8.13;;;4.80;52.60;;;;;;20747;6843;129182;-74
2022/11/27 08:00:09;;;;;;;240.45;12.40;;;4.60;53.30;;;;;;20757;6843;118106;-73
2022/11/27 08:02:35;;;;;;;349.37;14.37;;;4.40;53.90;;;;;;20760;6844;117487;-73
2022/11/27 08:05:00;;;;;;;399.93;18.30;;;4.20;53.60;;;;;;20544;6844;310109;-74
2022/11/27 08:07:29;;;;;;;580.55;21.52;;;4.40;54.30;;;;;;20761;6844;117389;-74
2022/11/27 08:09:57;;;;;;;244.33;11.90;;;4.40;53.80;;;;;;20746;6844;119057;-74
2022/11/27 08:12:20;;;;;;;75.80;7.85;;;4.30;54.00;;;;;;20485;6862;308951;-75
2022/11/27 08:14:46;;;;;;;155.33;11.00;;;4.40;53.80;;;;;;20701;6862;117367;-75
2022/11/27 08:17:12;;;;;;;103.40;20.73;;;4.50;53.70;;;;;;20552;6844;307358;-74
2022/11/27 08:19:37;;;;;;;101.43;10.65;;;4.70;53.60;;;;;;20530;6844;336791;-76
2022/11/27 08:22:05;;;;;;;73.60;8.30;;;5.00;52.60;;;;;;20768;6844;117842;-77
2022/11/27 08:24:29;;;;;;;139.97;8.13;;;5.00;52.60;;;;;;20748;6844;117018;-78
2022/11/27 08:26:55;;;;;;;57.47;9.27;;;4.80;53.10;;;;;;20493;6862;280967;-75
2022/11/27 08:29:21;;;;;;;186.18;10.90;;;5.20;52.70;;;;;;20483;6862;310013;-75
2022/11/27 08:31:47;;;;;;;53.63;6.83;;;5.20;52.70;;;;;;20723;6844;117825;-75
2022/11/27 08:34:12;;;;;;;32.80;6.93;;;5.10;52.50;;;;;;20539;6844;306315;-73
2022/11/27 08:36:38;;;;;;;13.60;6.80;;;5.30;53.00;;;;;;20758;6842;117542;-76
2022/11/27 08:39:04;;;;;;;21.77;7.95;;;5.10;53.20;;;;;;20763;6843;116985;-72
2022/11/27 08:41:30;;;;;;;6.83;6.10;;;5.00;53.00;;;;;;20758;6843;116991;-74
2022/11/27 08:43:56;;;;;;;7.93;7.20;;;5.00;53.40;;;;;;20523;6843;310502;-73
2022/11/27 08:46:22;;;;;;;6.23;5.77;;;5.00;53.40;;;;;;20755;6843;118736;-76
2022/11/27 08:48:48;;;;;;;10.27;6.10;;;5.20;53.10;;;;;;20540;6843;289916;-74
2022/11/27 08:51:14;;;;;;;87.47;8.53;;;5.20;53.10;;;;;;20761;6843;117026;-75
2022/11/27 08:53:40;;;;;;;33.93;6.93;;;5.10;53.40;;;;;;20738;6843;119257;-75
2022/11/27 08:56:06;;;;;;;51.10;6.17;;;5.10;53.40;;;;;;20761;6843;120823;-74
2022/11/27 08:58:31;;;;;;;30.20;7.17;;;5.00;53.80;;;;;;20500;6843;280868;-72
2022/11/27 09:00:58;;;;;;;201.27;11.90;;;5.60;54.10;;;;;;20544;6843;307671;-73
2022/11/27 09:03:23;;;;;;;359.23;16.08;;;5.60;53.50;;;;;;20557;6843;307126;-73
2022/11/27 09:05:49;;;;;;;27.33;6.50;;;5.90;52.60;;;;;;20680;6862;118191;-73
2022/11/27 09:08:19;;;;;;;146.00;10.93;;;5.90;52.40;;;;;;20479;6862;339186;-74
2022/11/27 09:10:42;;;;;;;244.77;14.10;;;6.30;51.80;;;;;;20529;6843;337199;-76
2022/11/27 09:13:08;;;;;;;122.43;11.98;;;6.30;51.90;;;;;;20547;6844;278533;-74
2022/11/27 09:15:34;;;;;;;155.47;13.73;;;6.70;52.00;;;;;;20544;6844;307263;-74
2022/11/27 09:18:00;;;;;;;54.43;9.40;;;6.70;52.00;;;;;;20524;6844;327520;-73
2022/11/27 09:20:25;;;;;;;14.83;6.87;;;6.80;51.60;;;;;;20754;6844;117537;-73
2022/11/27 09:22:51;;;;;;;9.98;8.13;;;6.70;51.80;;;;;;20542;6844;337398;-73
2022/11/27 09:25:17;;;;;;;42.73;8.20;;;6.70;52.60;;;;;;20544;6844;296472;-73
2022/11/27 09:27:42;;;;;;;13.50;7.20;;;7.00;52.40;;;;;;20521;6844;298187;-73
2022/11/27 09:30:08;;;;;;;9.97;7.13;;;7.20;52.00;;;;;;20522;6841;277798;-72
2022/11/27 09:32:35;;;;;;;8.70;7.00;;;7.60;51.80;;;;;;20533;6841;336495;-73
2022/11/27 09:35:03;;;;;;;10.17;6.47;;;7.50;51.70;;;;;;20775;6841;118824;-74
2022/11/27 09:37:29;;;;;;;15.93;8.47;;;7.40;51.90;;;;;;20768;6841;117284;-74
2022/11/27 09:39:54;;;;;;;29.20;8.18;;;7.20;52.30;;;;;;20476;6862;427015;-77
2022/11/27 09:42:26;;;;;;;11.10;7.33;;;7.20;52.30;;;;;;20756;6847;117142;-76
2022/11/27 09:44:52;;;;;;;33.17;7.00;;;7.10;52.20;;;;;;20589;6847;117584;-75
2022/11/27 09:47:34;;;;;;;15.93;8.20;;;6.90;52.50;;;;;;20479;6860;311427;-75
2022/11/27 09:50:00;;;;;;;14.13;8.00;;;6.90;52.50;;;;;;20509;6846;278082;-75
2022/11/27 09:52:35;;;;;;;7.47;6.93;;;7.20;52.20;;;;;;20742;6846;117222;-77
2022/11/27 09:55:01;;;;;;;126.70;12.10;;;7.20;52.40;;;;;;20494;6861;279486;-77
2022/11/27 09:57:27;;;;;;;16.87;9.00;;;7.20;52.40;;;;;;20514;6845;298559;-76
2022/11/27 09:59:52;;;;;;;145.37;12.27;;;7.40;52.00;;;;;;20658;6861;117304;-75
2022/11/27 10:02:29;;;;;;;143.47;12.07;;;7.40;52.00;;;;;;20708;6861;118506;-78
2022/11/27 10:04:55;;;;;;;145.53;12.87;;;7.20;52.30;;;;;;20766;6845;117569;-77
2022/11/27 10:07:28;;;;;;;9.35;7.75;;;6.70;53.20;;;;;;20755;6845;117498;-76
2022/11/27 10:09:54;;;;;;;7.80;6.90;;;6.60;53.70;;;;;;20588;6845;118586;-74
2022/11/27 10:12:39;;;;;;;6.80;6.40;;;6.60;53.60;;;;;;20722;6845;118418;-75
2022/11/27 10:15:15;;;;;;;7.35;6.85;;;6.50;53.90;;;;;;20512;6845;339260;-75
2022/11/27 10:17:47;;;;;;;6.43;6.03;;;6.80;53.90;;;;;;20694;6845;149879;-76
2022/11/27 10:20:18;;;;;;;7.57;7.07;;;7.00;53.60;;;;;;20526;6845;277787;-77
2022/11/27 10:23:01;;;;;;;7.07;6.67;;;7.20;54.20;;;;;;20554;6845;294158;-74
2022/11/27 10:25:32;;;;;;;6.63;6.23;;;7.50;53.00;;;;;;20747;6845;117124;-75
2022/11/27 10:28:05;;;;;;;6.00;5.70;;;7.60;52.90;;;;;;20724;6845;119402;-75
2022/11/27 10:30:30;;;;;;;6.50;6.10;;;7.50;53.30;;;;;;20729;6845;116940;-76
2022/11/27 10:32:56;;;;;;;7.17;6.67;;;7.40;53.60;;;;;;20479;6862;280377;-74
2022/11/27 10:35:28;;;;;;;6.40;6.00;;;7.60;54.00;;;;;;20758;6845;117520;-75
2022/11/27 10:38:00;;;;;;;7.32;6.78;;;7.80;53.90;;;;;;20515;6845;281889;-76
2022/11/27 10:40:25;;;;;;;5.93;5.63;;;8.10;53.60;;;;;;20712;6845;117510;-74
2022/11/27 10:43:00;;;;;;;7.33;6.83;;;8.10;53.20;;;;;;20539;6845;277423;-76
2022/11/27 10:45:39;;;;;;;7.45;6.95;;;8.20;52.70;;;;;;20529;6845;306446;-73
2022/11/27 10:48:04;;;;;;;6.23;5.83;;;8.50;52.70;;;;;;20743;6845;117551;-73
2022/11/27 10:50:30;;;;;;;6.43;6.03;;;8.40;52.50;;;;;;20757;6845;117143;-72
2022/11/27 10:52:59;;;;;;;6.87;6.37;;;8.20;52.90;;;;;;20739;6845;117173;-71
2022/11/27 10:55:41;;;;;;;5.87;5.47;;;7.90;53.20;;;;;;20745;6845;117960;-72
2022/11/27 10:58:26;;;;;;;6.40;6.10;;;7.70;53.60;;;;;;19927;6844;278682;-73
2022/11/27 11:00:59;;;;;;;6.63;6.23;;;7.90;54.00;;;;;;20755;6844;118376;-71
2022/11/27 11:03:24;;;;;;;20.02;18.17;;;7.90;53.70;;;;;;20505;6845;307725;-77
2022/11/27 11:05:53;;;;;;;15.60;14.13;;;8.00;54.10;;;;;;20531;6845;277851;-73
2022/11/27 11:08:20;;;;;;;10.00;9.20;;;8.20;53.20;;;;;;20751;6845;118112;-75
2022/11/27 11:10:53;;;;;;;8.48;7.97;;;8.30;53.70;;;;;;20538;6845;308115;-75
2022/11/27 11:13:21;;;;;;;6.60;6.20;;;8.30;53.70;;;;;;20542;6845;310031;-74
2022/11/27 11:15:50;;;;;;;6.03;5.60;;;8.60;53.30;;;;;;20708;6845;120537;-80
2022/11/27 11:18:16;;;;;;;5.93;5.50;;;8.50;53.20;;;;;;20445;6845;117420;-74
2022/11/27 11:20:41;;;;;;;7.40;6.90;;;8.40;53.70;;;;;;20507;6845;311234;-73
2022/11/27 11:23:08;;;;;;;6.78;6.28;;;8.60;55.00;;;;;;20745;6845;117623;-72
2022/11/27 11:25:33;;;;;;;6.37;6.00;;;8.60;55.00;;;;;;20714;6845;117654;-72
2022/11/27 11:27:59;;;;;;;6.40;6.00;;;8.60;55.10;;;;;;20523;6845;308095;-71
2022/11/27 11:30:25;;;;;;;6.07;5.68;;;8.80;54.70;;;;;;20745;6845;116799;-71
2022/11/27 11:32:51;;;;;;;5.33;5.03;;;8.80;54.70;;;;;;20738;6845;117255;-72
2022/11/27 11:35:23;;;;;;;5.78;5.28;;;8.80;54.70;;;;;;20715;6845;117785;-71
2022/11/27 11:37:49;;;;;;;5.53;5.20;;;8.80;54.90;;;;;;20492;6845;306326;-71
2022/11/27 11:40:21;;;;;;;6.30;5.90;;;9.00;53.30;;;;;;20543;6845;280441;-72
2022/11/27 11:42:49;;;;;;;6.33;5.93;;;9.30;53.20;;;;;;20759;6845;117002;-72
2022/11/27 11:45:16;;;;;;;6.70;6.30;;;9.20;53.20;;;;;;20726;6845;117121;-73
2022/11/27 11:47:49;;;;;;;7.27;6.87;;;9.20;53.20;;;;;;20721;6845;119589;-76
2022/11/27 11:50:39;;;;;;;8.73;8.18;;;9.00;53.30;;;;;;20537;6845;277786;-73
2022/11/27 11:53:05;;;;;;;7.90;7.40;;;9.40;51.90;;;;;;19891;6845;304979;-72
2022/11/27 11:56:07;;;;;;;8.93;8.20;;;9.50;52.00;;;;;;20491;6845;338207;-71
2022/11/27 11:58:53;;;;;;;6.63;6.13;;;9.70;51.20;;;;;;20743;6845;117071;-74
2022/11/27 12:01:23;;;;;;;9.65;8.85;;;9.60;51.30;;;;;;20539;6845;307245;-74
2022/11/27 12:03:52;;;;;;;10.10;9.40;;;9.80;50.40;;;;;;20499;6845;318396;-75
2022/11/27 12:06:28;;;;;;;8.37;7.80;;;9.60;50.60;;;;;;20062;6845;117758;-74
2022/11/27 12:09:01;;;;;;;9.02;8.40;;;9.60;50.60;;;;;;20536;6845;307360;-75
2022/11/27 12:11:42;;;;;;;8.83;8.33;;;9.70;50.90;;;;;;20501;6843;278049;-74
2022/11/27 12:14:30;;;;;;;8.57;7.90;;;10.00;49.70;;;;;;20523;6845;277728;-72
2022/11/27 12:16:57;;;;;;;7.30;6.80;;;10.30;49.00;;;;;;20756;6845;117271;-76
2022/11/27 12:19:40;;;;;;;6.80;6.30;;;10.30;49.10;;;;;;20461;6861;278927;-73
2022/11/27 12:22:12;;;;;;;6.63;6.23;;;10.40;47.40;;;;;;20517;6847;307981;-75
2022/11/27 12:24:55;;;;;;;6.20;5.70;;;10.70;46.70;;;;;;20679;6847;117167;-73
2022/11/27 12:27:46;;;;;;;6.47;5.97;;;10.70;47.00;;;;;;20727;6847;117073;-72
2022/11/27 12:30:21;;;;;;;7.15;6.70;;;10.40;47.30;;;;;;20256;6847;337771;-71
2022/11/27 12:33:26;;;;;;;7.83;7.23;;;10.50;47.00;;;;;;20551;6845;278507;-73
2022/11/27 12:36:15;;;;;;;8.90;8.30;;;10.80;46.90;;;;;;20517;6845;306957;-75
2022/11/27 12:38:45;;;;;;;8.27;7.73;;;11.10;46.50;;;;;;20756;6845;118617;-78
2022/11/27 12:41:30;;;;;;;8.45;7.85;;;11.00;46.80;;;;;;20232;6845;306881;-75
2022/11/27 12:43:59;;;;;;;7.97;7.47;;;10.90;46.70;;;;;;20738;6845;117341;-76
2022/11/27 12:46:21;;;;;;;8.07;7.47;;;10.80;47.00;;;;;;20690;6862;117313;-75
2022/11/27 12:48:50;;;;;;;7.50;6.93;;;10.60;47.50;;;;;;20743;6845;117550;-74
2022/11/27 12:51:16;;;;;;;7.13;6.53;;;10.30;47.80;;;;;;20732;6845;117352;-75
2022/11/27 12:53:44;;;;;;;9.93;9.13;;;10.10;48.20;;;;;;20408;6845;307333;-75
2022/11/27 12:56:23;;;;;;;9.93;9.03;;;10.20;49.30;;;;;;20697;6862;117844;-75
2022/11/27 12:58:47;;;;;;;8.23;7.73;;;10.20;48.60;;;;;;20463;6862;308162;-75
2022/11/27 13:01:20;;;;;;;8.77;8.07;;;10.60;48.00;;;;;;20489;6862;308762;-75
2022/11/27 13:04:19;;;;;;;7.80;7.17;;;10.50;48.50;;;;;;20649;6862;129308;-76
2022/11/27 13:07:16;;;;;;;7.23;6.63;;;10.50;48.00;;;;;;20722;6845;120232;-76
2022/11/27 13:09:49;;;;;;;6.83;6.17;;;10.30;48.50;;;;;;20738;6845;117649;-77